Decoded Metar for KIXA ( in ) (IATA:) | Meteo·Mobile Aviation Weather
aviador You're here:

KIXA Decoded Metar

in
Report Time2018-09-23 13:30:00
UTC Time2018-09-23 13:49:51
Flight Rules lifr LIFR
WindCalm
Visibility2012 m
Phenomena:Mist
Clouds:Overcast 002 Hf
Ceiling200 ft
Temp20°C
Dew Point20°C (100% RH)
QNH1020 hPa
Raw Report
METAR KIXA 231330Z AUTO 00000KT 1 1/4SM BR OVC002 20/20 A3013 RMK AO2=

Extra information for KIXA:More info

Social comments